createdAt,value
2022-11-24T00:01:05.395Z,16.30
2022-11-24T00:03:32.248Z,16.08
2022-11-24T00:06:04.524Z,16.08
2022-11-24T00:08:31.302Z,16.13
2022-11-24T00:11:06.419Z,16.75
2022-11-24T00:13:34.115Z,13.90
2022-11-24T00:16:07.178Z,15.32
2022-11-24T00:18:33.958Z,18.95
2022-11-24T00:21:00.674Z,14.77
2022-11-24T00:23:27.578Z,15.32
2022-11-24T00:25:54.359Z,17.75
2022-11-24T00:28:21.125Z,18.02
2022-11-24T00:30:47.855Z,20.40
2022-11-24T00:33:14.666Z,18.88
2022-11-24T00:35:41.422Z,19.25
2022-11-24T00:38:08.141Z,24.27
2022-11-24T00:40:35.178Z,17.10
2022-11-24T00:43:02.030Z,17.52
2022-11-24T00:45:28.806Z,19.00
2022-11-24T00:47:55.492Z,18.65
2022-11-24T00:50:22.628Z,13.73
2022-11-24T00:52:49.374Z,13.98
2022-11-24T00:55:16.222Z,16.95
2022-11-24T00:57:42.932Z,15.43
2022-11-24T01:00:10.015Z,12.38
2022-11-24T01:05:03.740Z,11.25
2022-11-24T01:07:31.164Z,12.57
2022-11-24T01:09:57.960Z,12.32
2022-11-24T01:12:24.682Z,12.55
2022-11-24T01:14:51.557Z,11.23
2022-11-24T01:17:18.310Z,14.27
2022-11-24T01:19:47.182Z,9.90
2022-11-24T01:22:14.073Z,10.13
2022-11-24T01:24:41.182Z,10.85
2022-11-24T01:29:34.555Z,12.73
2022-11-24T01:32:01.366Z,11.25
2022-11-24T01:34:28.201Z,11.48
2022-11-24T01:36:54.886Z,13.10
2022-11-24T01:39:21.621Z,13.95
2022-11-24T01:41:48.323Z,10.68
2022-11-24T01:44:24.626Z,9.32
2022-11-24T01:47:17.234Z,9.23
2022-11-24T01:49:51.404Z,10.48
2022-11-24T01:52:49.986Z,10.50
2022-11-24T01:55:21.752Z,10.85
2022-11-24T01:57:55.448Z,9.93
2022-11-24T02:00:22.461Z,9.50
2022-11-24T02:02:49.548Z,11.68
2022-11-24T02:05:28.307Z,10.13
2022-11-24T02:07:59.352Z,10.07
2022-11-24T02:10:26.382Z,12.25
2022-11-24T02:12:56.206Z,8.95
2022-11-24T02:15:23.389Z,9.82
2022-11-24T02:20:17.899Z,10.68
2022-11-24T02:23:35.315Z,10.30
2022-11-24T02:26:25.817Z,10.25
2022-11-24T02:28:52.916Z,12.15
2022-11-24T02:31:19.722Z,10.80
2022-11-24T02:33:48.694Z,9.02
2022-11-24T02:36:15.862Z,12.18
2022-11-24T02:41:13.373Z,10.85
2022-11-24T02:43:44.820Z,10.85
2022-11-24T02:46:11.700Z,10.70
2022-11-24T02:48:39.299Z,10.73
2022-11-24T02:51:06.487Z,11.75
2022-11-24T02:53:33.365Z,9.80
2022-11-24T02:56:00.089Z,10.27
2022-11-24T02:58:27.102Z,9.43
2022-11-24T03:00:57.327Z,7.97
2022-11-24T03:03:24.896Z,9.88
2022-11-24T03:05:51.855Z,12.55
2022-11-24T03:08:18.739Z,10.88
2022-11-24T03:10:45.705Z,10.70
2022-11-24T03:13:12.489Z,11.27
2022-11-24T03:15:39.376Z,13.48
2022-11-24T03:18:06.492Z,8.57
2022-11-24T03:20:33.958Z,10.50
2022-11-24T03:23:00.686Z,13.07
2022-11-24T03:25:27.440Z,9.40
2022-11-24T03:27:57.383Z,10.43
2022-11-24T03:30:24.162Z,9.68
2022-11-24T03:32:54.038Z,9.65
2022-11-24T03:35:21.324Z,10.45
2022-11-24T03:37:48.350Z,9.85
2022-11-24T03:40:15.694Z,10.50
2022-11-24T03:42:42.477Z,11.13
2022-11-24T03:45:37.923Z,11.05
2022-11-24T03:47:56.178Z,9.38
2022-11-24T03:50:22.899Z,9.95
2022-11-24T03:52:49.617Z,12.40
2022-11-24T03:55:16.664Z,9.05
2022-11-24T03:57:43.371Z,9.68
2022-11-24T04:00:11.228Z,11.63
2022-11-24T04:02:38.535Z,11.02
2022-11-24T04:05:06.345Z,10.95
2022-11-24T04:07:33.442Z,10.00
2022-11-24T04:12:45.013Z,10.68
2022-11-24T04:15:15.173Z,11.30
2022-11-24T04:17:42.471Z,9.38
2022-11-24T04:20:10.584Z,11.63
2022-11-24T04:22:37.556Z,12.40
2022-11-24T04:25:05.180Z,10.00
2022-11-24T04:27:35.841Z,9.55
2022-11-24T04:30:03.630Z,11.45
2022-11-24T04:32:30.501Z,9.43
2022-11-24T04:34:57.181Z,10.48
2022-11-24T04:37:24.008Z,10.73
2022-11-24T04:39:50.707Z,9.48
2022-11-24T04:42:17.530Z,9.98
2022-11-24T04:44:44.406Z,9.38
2022-11-24T04:47:20.005Z,10.77
2022-11-24T04:49:50.259Z,10.85
2022-11-24T04:52:19.528Z,11.75
2022-11-24T04:54:46.913Z,10.48
2022-11-24T04:57:19.670Z,10.90
2022-11-24T04:59:46.449Z,11.27
2022-11-24T05:02:13.482Z,8.35
2022-11-24T05:04:40.532Z,12.32
2022-11-24T05:07:07.716Z,10.40
2022-11-24T05:12:21.303Z,12.50
2022-11-24T05:14:48.063Z,11.82
2022-11-24T05:17:14.814Z,11.88
2022-11-24T05:19:41.572Z,11.55
2022-11-24T05:22:08.303Z,9.73
2022-11-24T05:24:35.304Z,10.77
2022-11-24T05:27:02.263Z,14.07
2022-11-24T05:29:28.948Z,12.90
2022-11-24T05:31:55.732Z,11.55
2022-11-24T05:34:22.796Z,13.82
2022-11-24T05:36:56.226Z,12.98
2022-11-24T05:41:49.619Z,13.98
2022-11-24T05:44:16.377Z,14.40
2022-11-24T05:46:43.133Z,15.35
2022-11-24T05:49:10.011Z,13.20
2022-11-24T05:51:37.023Z,15.18
2022-11-24T05:54:04.002Z,13.15
2022-11-24T05:56:30.881Z,18.85
2022-11-24T05:58:57.656Z,13.48
2022-11-24T06:01:24.523Z,16.73
2022-11-24T06:03:51.328Z,14.65
2022-11-24T06:06:18.087Z,13.10
2022-11-24T06:08:44.870Z,14.43
2022-11-24T06:11:17.741Z,13.57
2022-11-24T06:13:45.926Z,12.52
2022-11-24T06:16:13.323Z,12.82
2022-11-24T06:18:40.510Z,12.50
2022-11-24T06:23:39.336Z,16.77
2022-11-24T06:26:06.549Z,13.82
2022-11-24T06:31:04.910Z,11.93
2022-11-24T06:33:36.134Z,14.82
2022-11-24T06:36:07.766Z,14.85
2022-11-24T06:38:36.013Z,15.48
2022-11-24T06:41:07.205Z,16.88
2022-11-24T06:43:35.033Z,13.40
2022-11-24T06:46:02.324Z,13.25
2022-11-24T06:48:29.678Z,15.68
2022-11-24T06:51:01.002Z,14.05
2022-11-24T06:53:31.025Z,14.23
2022-11-24T06:55:59.821Z,15.13
2022-11-24T06:58:26.805Z,16.35
2022-11-24T07:00:54.074Z,14.38
2022-11-24T07:03:21.016Z,16.55
2022-11-24T07:05:47.960Z,16.90
2022-11-24T07:08:17.907Z,14.50
2022-11-24T07:10:45.486Z,19.35
2022-11-24T07:13:12.256Z,15.77
2022-11-24T07:15:39.030Z,16.88
2022-11-24T07:18:05.855Z,21.50
2022-11-24T07:20:32.605Z,15.98
2022-11-24T07:22:59.643Z,16.33
2022-11-24T07:25:26.541Z,15.15
2022-11-24T07:28:00.204Z,16.83
2022-11-24T07:30:28.423Z,15.18
2022-11-24T07:33:02.747Z,19.13
2022-11-24T07:35:30.489Z,24.42
2022-11-24T07:37:58.391Z,20.48
2022-11-24T07:40:26.961Z,21.38
2022-11-24T07:42:54.286Z,18.48
2022-11-24T07:45:21.181Z,19.77
2022-11-24T07:47:47.940Z,17.45
2022-11-24T07:50:15.014Z,17.50
2022-11-24T07:52:41.702Z,21.08
2022-11-24T07:55:09.046Z,20.10
2022-11-24T07:57:35.949Z,23.08
2022-11-24T08:00:05.691Z,23.95
2022-11-24T08:02:33.178Z,26.98
2022-11-24T08:04:59.949Z,21.65
2022-11-24T08:07:26.775Z,18.77
2022-11-24T08:09:53.858Z,19.25
2022-11-24T08:14:51.127Z,20.10
2022-11-24T08:17:18.536Z,20.42
2022-11-24T08:19:45.717Z,23.60
2022-11-24T08:22:12.598Z,19.92
2022-11-24T08:24:46.270Z,23.35
2022-11-24T08:27:13.936Z,20.40
2022-11-24T08:29:40.690Z,22.52
2022-11-24T08:32:08.236Z,21.75
2022-11-24T08:34:35.371Z,23.45
2022-11-24T08:37:06.941Z,26.45
2022-11-24T08:39:34.141Z,23.95
2022-11-24T08:42:00.944Z,21.20
2022-11-24T08:44:28.824Z,27.70
2022-11-24T08:46:55.910Z,20.55
2022-11-24T08:49:22.716Z,23.73
2022-11-24T08:51:51.317Z,24.35
2022-11-24T08:54:18.864Z,22.92
2022-11-24T08:56:46.437Z,26.52
2022-11-24T08:59:14.547Z,21.02
2022-11-24T09:01:42.084Z,25.45
2022-11-24T09:04:08.869Z,21.08
2022-11-24T09:06:35.734Z,24.17
2022-11-24T09:09:03.023Z,26.38
2022-11-24T09:11:30.694Z,23.13
2022-11-24T09:13:57.773Z,25.80
2022-11-24T09:19:01.232Z,24.38
2022-11-24T09:21:29.412Z,27.73
2022-11-24T09:23:57.242Z,26.45
2022-11-24T09:26:26.882Z,25.35
2022-11-24T09:28:55.162Z,29.42
2022-11-24T09:31:24.509Z,23.73
2022-11-24T09:33:52.403Z,27.10
2022-11-24T09:36:19.923Z,26.20
2022-11-24T09:38:46.981Z,25.60
2022-11-24T09:41:44.817Z,25.92
2022-11-24T09:44:46.125Z,22.38
2022-11-24T09:47:34.086Z,23.20
2022-11-24T09:50:17.755Z,25.85
2022-11-24T09:53:03.835Z,21.98
2022-11-24T09:55:49.793Z,21.27
2022-11-24T09:58:50.937Z,22.73
2022-11-24T10:01:45.354Z,24.17
2022-11-24T10:04:20.949Z,22.30
2022-11-24T10:07:13.544Z,23.33
2022-11-24T10:10:14.111Z,23.65
2022-11-24T10:13:05.284Z,24.65
2022-11-24T10:15:42.444Z,24.77
2022-11-24T10:18:16.692Z,25.10
2022-11-24T10:21:18.190Z,24.45
2022-11-24T10:24:06.057Z,25.15
2022-11-24T10:26:43.957Z,24.58
2022-11-24T10:29:19.206Z,55.72
2022-11-24T10:31:47.729Z,34.25
2022-11-24T10:34:18.015Z,25.77
2022-11-24T10:36:52.470Z,24.88
2022-11-24T10:39:42.262Z,23.35
2022-11-24T10:42:20.627Z,26.10
2022-11-24T10:45:10.123Z,27.08
2022-11-24T10:47:37.199Z,26.85
2022-11-24T10:50:16.048Z,27.52
2022-11-24T10:52:47.863Z,26.35
2022-11-24T10:55:14.730Z,27.27
2022-11-24T11:00:20.413Z,25.15
2022-11-24T11:02:49.892Z,26.52
2022-11-24T11:06:01.032Z,30.80
2022-11-24T11:08:33.888Z,28.15
2022-11-24T11:11:12.823Z,25.85
2022-11-24T11:14:03.394Z,31.60
2022-11-24T11:16:35.998Z,30.58
2022-11-24T11:19:20.232Z,30.15
2022-11-24T11:22:06.391Z,30.20
2022-11-24T11:24:34.323Z,30.10
2022-11-24T11:27:04.508Z,28.17
2022-11-24T11:35:13.599Z,26.90
2022-11-24T11:37:40.979Z,29.00
2022-11-24T11:40:17.753Z,27.95
2022-11-24T11:43:20.141Z,30.20
2022-11-24T11:45:50.821Z,27.77
2022-11-24T11:48:33.721Z,27.73
2022-11-24T11:51:23.951Z,29.15
2022-11-24T11:54:29.363Z,30.80
2022-11-24T11:57:32.105Z,28.35
2022-11-24T12:00:22.077Z,28.77
2022-11-24T12:03:30.545Z,31.83
2022-11-24T12:06:15.317Z,30.55
2022-11-24T12:09:20.221Z,31.48
2022-11-24T12:12:18.385Z,33.58
2022-11-24T12:15:09.128Z,28.20
2022-11-24T12:17:46.543Z,30.75
2022-11-24T12:20:28.436Z,27.85
2022-11-24T12:23:01.305Z,31.67
2022-11-24T12:25:34.867Z,28.67
2022-11-24T12:28:26.252Z,31.08
2022-11-24T12:31:07.255Z,28.90
2022-11-24T12:34:04.268Z,27.95
2022-11-24T12:37:08.587Z,29.38
2022-11-24T12:39:39.631Z,28.77
2022-11-24T12:42:42.987Z,31.85
2022-11-24T12:45:09.684Z,30.95
2022-11-24T12:48:03.723Z,29.70
2022-11-24T12:50:34.892Z,29.83
2022-11-24T12:53:18.337Z,34.42
2022-11-24T12:55:46.190Z,30.73
2022-11-24T12:58:27.769Z,28.98
2022-11-24T13:01:59.099Z,31.05
2022-11-24T13:04:36.428Z,29.15
2022-11-24T13:07:12.412Z,28.15
2022-11-24T13:10:17.482Z,27.70
2022-11-24T13:13:08.169Z,26.52
2022-11-24T13:19:25.637Z,27.13
2022-11-24T13:22:07.339Z,27.58
2022-11-24T13:24:39.251Z,27.38
2022-11-24T13:27:15.436Z,27.23
2022-11-24T13:29:47.184Z,27.17
2022-11-24T13:32:17.682Z,26.98
2022-11-24T13:34:45.715Z,29.58
2022-11-24T13:37:34.922Z,26.23
2022-11-24T13:40:22.916Z,27.33
2022-11-24T13:43:00.393Z,31.23
2022-11-24T13:45:40.187Z,28.48
2022-11-24T13:50:49.999Z,21.48
2022-11-24T13:53:38.576Z,31.17
2022-11-24T13:56:15.037Z,25.35
2022-11-24T13:58:42.938Z,27.40
2022-11-24T14:01:30.347Z,27.00
2022-11-24T14:04:29.989Z,23.02
2022-11-24T14:06:53.252Z,27.75
2022-11-24T14:09:49.209Z,25.48
2022-11-24T14:12:20.817Z,23.95
2022-11-24T14:14:52.469Z,23.50
2022-11-24T14:17:28.550Z,22.17
2022-11-24T14:19:57.170Z,23.15
2022-11-24T14:22:26.700Z,23.58
2022-11-24T14:24:55.848Z,24.13
2022-11-24T14:27:34.115Z,22.20
2022-11-24T14:30:04.801Z,21.52
2022-11-24T14:32:31.721Z,25.20
2022-11-24T14:37:25.476Z,24.63
2022-11-24T14:42:27.566Z,20.38
2022-11-24T14:45:00.696Z,20.85
2022-11-24T14:47:32.911Z,22.35
2022-11-24T14:50:13.350Z,22.23
2022-11-24T14:52:55.591Z,22.05
2022-11-24T14:55:30.820Z,27.23
2022-11-24T14:57:58.548Z,26.58
2022-11-24T15:00:27.262Z,25.33
2022-11-24T15:02:55.254Z,24.02
2022-11-24T15:05:26.135Z,24.63
2022-11-24T15:08:02.308Z,20.90
2022-11-24T15:10:36.046Z,24.67
2022-11-24T15:13:06.767Z,23.75
2022-11-24T15:15:38.526Z,28.58
2022-11-24T15:18:06.653Z,23.27
2022-11-24T15:20:36.895Z,22.60
2022-11-24T15:23:28.582Z,22.35
2022-11-24T15:26:18.375Z,22.48
2022-11-24T15:28:48.191Z,24.65
2022-11-24T15:31:15.221Z,24.45
2022-11-24T15:33:42.400Z,27.20
2022-11-24T15:36:09.292Z,21.83
2022-11-24T15:41:12.794Z,23.63
2022-11-24T15:43:41.838Z,26.25
2022-11-24T15:46:10.248Z,27.30
2022-11-24T15:48:37.143Z,23.88
2022-11-24T15:51:07.046Z,24.02
2022-11-24T15:53:40.696Z,23.00
2022-11-24T15:56:12.484Z,25.13
2022-11-24T15:58:39.249Z,26.00
2022-11-24T16:01:06.255Z,27.05
2022-11-24T16:03:49.259Z,25.73
2022-11-24T16:06:24.122Z,26.58
2022-11-24T16:08:52.938Z,27.20
2022-11-24T16:11:19.802Z,26.83
2022-11-24T16:16:20.448Z,25.58
2022-11-24T16:18:47.300Z,24.38
2022-11-24T16:21:14.090Z,25.15
2022-11-24T16:23:40.908Z,26.67
2022-11-24T16:28:34.973Z,30.17
2022-11-24T16:31:01.785Z,27.25
2022-11-24T16:33:30.191Z,26.35
2022-11-24T16:35:57.214Z,27.73
2022-11-24T16:38:24.261Z,25.42
2022-11-24T16:40:52.616Z,28.85
2022-11-24T16:43:19.763Z,32.17
2022-11-24T16:45:50.119Z,32.78
2022-11-24T16:48:16.939Z,28.23
2022-11-24T16:50:43.878Z,27.23
2022-11-24T16:53:10.688Z,28.60
2022-11-24T16:55:37.412Z,30.70
2022-11-24T16:58:05.105Z,30.88
2022-11-24T17:00:31.985Z,28.98
2022-11-24T17:05:25.746Z,29.25
2022-11-24T17:07:52.668Z,28.92
2022-11-24T17:10:19.606Z,29.75
2022-11-24T17:12:46.301Z,32.20
2022-11-24T17:18:23.383Z,30.98
2022-11-24T17:20:46.648Z,31.27
2022-11-24T17:25:40.194Z,33.78
2022-11-24T17:28:07.000Z,33.78
2022-11-24T17:30:33.758Z,34.78
2022-11-24T17:33:00.520Z,31.52
2022-11-24T17:35:27.225Z,32.42
2022-11-24T17:37:53.993Z,38.72
2022-11-24T17:40:28.275Z,39.20
2022-11-24T17:43:01.909Z,50.38
2022-11-24T17:45:30.432Z,41.17
2022-11-24T17:47:59.900Z,38.35
2022-11-24T17:50:26.927Z,35.08
2022-11-24T17:52:54.257Z,36.70
2022-11-24T17:55:21.764Z,35.08
2022-11-24T17:57:48.534Z,39.13
2022-11-24T18:02:42.437Z,42.53
2022-11-24T18:07:36.976Z,37.95
2022-11-24T18:10:04.492Z,40.97
2022-11-24T18:12:32.245Z,39.75
2022-11-24T18:14:59.160Z,41.45
2022-11-24T18:19:52.625Z,43.08
2022-11-24T18:22:36.664Z,42.03
2022-11-24T18:25:07.018Z,37.22
2022-11-24T18:27:33.751Z,42.95
2022-11-24T18:30:00.612Z,41.83
2022-11-24T18:32:27.350Z,37.08
2022-11-24T18:34:54.176Z,41.20
2022-11-24T18:37:20.970Z,39.50
2022-11-24T18:39:47.660Z,38.10
2022-11-24T18:42:14.454Z,39.85
2022-11-24T18:44:42.432Z,38.80
2022-11-24T18:47:09.229Z,42.33
2022-11-24T18:49:35.972Z,40.67
2022-11-24T18:52:02.699Z,38.50
2022-11-24T18:54:29.679Z,40.83
2022-11-24T18:59:29.941Z,38.08
2022-11-24T19:01:57.967Z,36.10
2022-11-24T19:04:26.215Z,37.40
2022-11-24T19:06:52.955Z,37.88
2022-11-24T19:09:22.467Z,33.53
2022-11-24T19:11:49.283Z,34.40
2022-11-24T19:14:18.228Z,31.70
2022-11-24T19:16:47.598Z,30.98
2022-11-24T19:19:15.117Z,32.38
2022-11-24T19:21:41.922Z,33.13
2022-11-24T19:24:10.171Z,32.97
2022-11-24T19:26:38.213Z,32.40
2022-11-24T19:29:05.953Z,33.13
2022-11-24T19:31:33.470Z,33.40
2022-11-24T19:34:00.776Z,41.20
2022-11-24T19:36:27.478Z,35.28
2022-11-24T19:38:56.488Z,36.15
2022-11-24T19:41:29.637Z,33.38
2022-11-24T19:43:57.979Z,35.42
2022-11-24T19:46:27.351Z,39.08
2022-11-24T19:48:56.836Z,32.65
2022-11-24T19:51:26.498Z,34.55
2022-11-24T19:53:53.946Z,35.35
2022-11-24T19:56:23.137Z,33.95
2022-11-24T19:58:51.104Z,36.47
2022-11-24T20:01:19.903Z,33.10
2022-11-24T20:03:49.445Z,31.63
2022-11-24T20:06:16.383Z,33.03
2022-11-24T20:08:43.526Z,30.67
2022-11-24T20:11:14.712Z,35.28
2022-11-24T20:13:43.164Z,38.80
2022-11-24T20:16:15.525Z,38.10
2022-11-24T20:18:44.168Z,30.40
2022-11-24T20:21:10.808Z,31.88
2022-11-24T20:23:37.817Z,33.83
2022-11-24T20:28:53.118Z,33.85
2022-11-24T20:31:22.852Z,32.53
2022-11-24T20:33:50.372Z,30.55
2022-11-24T20:36:19.302Z,32.50
2022-11-24T20:38:47.228Z,31.55
2022-11-24T20:41:15.534Z,37.72
2022-11-24T20:43:43.936Z,31.85
2022-11-24T20:46:25.971Z,33.13
2022-11-24T20:48:54.726Z,34.22
2022-11-24T20:51:24.028Z,33.53
2022-11-24T20:53:53.231Z,36.53
2022-11-24T20:56:25.913Z,32.63
2022-11-24T20:58:53.408Z,34.00
2022-11-24T21:01:24.155Z,31.33
2022-11-24T21:03:58.909Z,29.75
2022-11-24T21:06:28.028Z,32.80
2022-11-24T21:08:59.049Z,31.77
2022-11-24T21:11:28.903Z,31.05
2022-11-24T21:13:56.397Z,28.80
2022-11-24T21:16:31.843Z,33.47
2022-11-24T21:19:06.483Z,33.90
2022-11-24T21:21:36.130Z,33.50
2022-11-24T21:24:10.012Z,37.65
2022-11-24T21:26:38.499Z,30.90
2022-11-24T21:29:06.682Z,31.20
2022-11-24T21:31:37.333Z,32.42
2022-11-24T21:34:05.248Z,33.80
2022-11-24T21:36:34.097Z,36.03
2022-11-24T21:39:02.196Z,36.88
2022-11-24T21:41:32.215Z,35.05
2022-11-24T21:43:59.116Z,39.85
2022-11-24T21:46:25.917Z,38.97
2022-11-24T21:48:52.657Z,37.25
2022-11-24T21:51:20.913Z,39.05
2022-11-24T21:53:48.213Z,40.67
2022-11-24T21:56:22.066Z,42.47
2022-11-24T21:58:57.446Z,39.75
2022-11-24T22:01:27.918Z,39.03
2022-11-24T22:03:55.362Z,34.88
2022-11-24T22:06:22.177Z,38.03
2022-11-24T22:08:49.374Z,36.90
2022-11-24T22:11:17.587Z,35.35
2022-11-24T22:13:44.570Z,36.70
2022-11-24T22:16:17.316Z,35.45
2022-11-24T22:18:44.789Z,38.63
2022-11-24T22:21:14.506Z,33.30
2022-11-24T22:23:41.454Z,40.42
2022-11-24T22:26:15.582Z,36.85
2022-11-24T22:28:43.326Z,33.25
2022-11-24T22:31:16.069Z,35.33
2022-11-24T22:33:43.818Z,33.47
2022-11-24T22:36:12.045Z,38.92
2022-11-24T22:38:39.448Z,32.97
2022-11-24T22:41:14.038Z,31.77
2022-11-24T22:43:41.851Z,32.13
2022-11-24T22:46:13.203Z,33.65
2022-11-24T22:48:41.037Z,31.63
2022-11-24T22:51:10.644Z,33.78
2022-11-24T22:53:37.771Z,31.73
2022-11-24T22:58:39.517Z,30.60
2022-11-24T23:01:19.104Z,31.52
2022-11-24T23:03:46.834Z,31.20
2022-11-24T23:06:15.892Z,34.78
2022-11-24T23:08:42.938Z,31.60
2022-11-24T23:13:37.771Z,30.23
2022-11-24T23:18:39.866Z,29.73
2022-11-24T23:21:16.907Z,30.10
2022-11-24T23:23:44.329Z,29.65
2022-11-24T23:26:20.767Z,32.55
2022-11-24T23:28:47.842Z,31.55
2022-11-24T23:33:43.722Z,30.85
2022-11-24T23:36:13.373Z,33.67
2022-11-24T23:38:41.123Z,34.78
2022-11-24T23:41:20.429Z,33.35
2022-11-24T23:43:47.615Z,34.05
2022-11-24T23:46:22.986Z,34.65
2022-11-24T23:48:51.284Z,36.35
2022-11-24T23:51:22.156Z,30.67
2022-11-24T23:53:49.697Z,32.33
2022-11-24T23:56:21.918Z,33.03
2022-11-24T23:58:48.987Z,33.42
